createdAt,value
2023-08-14T00:00:43.988Z,3.50
2023-08-14T00:05:47.094Z,3.53
2023-08-14T00:10:52.338Z,4.53
2023-08-14T00:15:55.395Z,3.95
2023-08-14T00:20:58.272Z,3.53
2023-08-14T00:26:02.485Z,4.68
2023-08-14T00:31:05.397Z,3.28
2023-08-14T00:36:08.364Z,3.45
2023-08-14T00:41:12.806Z,3.28
2023-08-14T00:46:16.821Z,3.33
2023-08-14T00:51:22.900Z,3.35
2023-08-14T00:56:29.326Z,3.55
2023-08-14T01:01:32.269Z,3.63
2023-08-14T01:06:35.138Z,3.20
2023-08-14T01:11:48.333Z,3.03
2023-08-14T01:16:56.040Z,3.55
2023-08-14T01:22:06.131Z,3.90
2023-08-14T01:27:10.950Z,3.45
2023-08-14T01:32:13.794Z,3.25
2023-08-14T01:37:24.311Z,3.33
2023-08-14T01:42:34.697Z,3.10
2023-08-14T01:47:40.451Z,3.15
2023-08-14T01:52:43.379Z,3.33
2023-08-14T01:57:47.542Z,3.10
2023-08-14T02:02:50.665Z,2.88
2023-08-14T02:07:55.376Z,3.72
2023-08-14T02:12:59.588Z,3.25
2023-08-14T02:18:02.522Z,3.35
2023-08-14T02:23:06.035Z,3.13
2023-08-14T02:28:10.278Z,3.28
2023-08-14T02:33:13.316Z,3.65
2023-08-14T02:38:17.253Z,3.83
2023-08-14T02:43:21.736Z,4.30
2023-08-14T02:48:24.962Z,4.00
2023-08-14T02:53:27.813Z,3.95
2023-08-14T02:58:32.604Z,3.40
2023-08-14T03:03:35.556Z,3.28
2023-08-14T03:08:38.512Z,3.50
2023-08-14T03:13:42.796Z,3.95
2023-08-14T03:18:45.710Z,3.78
2023-08-14T03:23:49.384Z,3.15
2023-08-14T03:28:53.697Z,3.60
2023-08-14T03:33:56.726Z,3.95
2023-08-14T03:39:01.071Z,3.70
2023-08-14T03:44:07.013Z,4.00
2023-08-14T03:49:10.904Z,3.55
2023-08-14T03:54:13.896Z,3.42
2023-08-14T03:59:18.145Z,3.83
2023-08-14T04:04:21.145Z,3.85
2023-08-14T04:09:24.011Z,3.60
2023-08-14T04:14:28.330Z,3.92
2023-08-14T04:19:31.205Z,3.83
2023-08-14T04:24:34.023Z,3.83
2023-08-14T04:29:38.276Z,4.40
2023-08-14T04:34:41.194Z,5.10
2023-08-14T04:39:44.458Z,4.03
2023-08-14T04:44:48.766Z,3.80
2023-08-14T04:49:51.741Z,3.90
2023-08-14T04:54:54.671Z,4.07
2023-08-14T05:00:02.622Z,4.38
2023-08-14T05:05:07.066Z,4.43
2023-08-14T05:10:10.231Z,4.20
2023-08-14T05:15:14.641Z,4.07
2023-08-14T05:20:17.769Z,4.28
2023-08-14T05:25:20.859Z,4.10
2023-08-14T05:30:25.043Z,4.90
2023-08-14T05:35:28.301Z,4.18
2023-08-14T05:40:31.329Z,4.35
2023-08-14T05:45:37.734Z,2.70
2023-08-14T05:50:41.442Z,3.15
2023-08-14T05:55:44.487Z,3.10
2023-08-14T06:00:48.671Z,3.13
2023-08-14T06:05:51.615Z,3.03
2023-08-14T06:10:54.451Z,5.80
2023-08-14T06:15:58.698Z,3.50
2023-08-14T06:21:01.569Z,3.63
2023-08-14T06:26:04.884Z,3.50
2023-08-14T06:31:10.291Z,3.60
2023-08-14T06:36:13.247Z,3.95
2023-08-14T06:41:16.119Z,3.88
2023-08-14T06:46:20.416Z,3.70
2023-08-14T06:51:23.339Z,3.30
2023-08-14T06:56:27.088Z,4.47
2023-08-14T07:01:31.340Z,4.10
2023-08-14T07:06:34.259Z,4.35
2023-08-14T07:11:39.843Z,3.85
2023-08-14T07:16:44.162Z,4.25
2023-08-14T07:21:47.267Z,3.38
2023-08-14T07:26:50.088Z,3.45
2023-08-14T07:31:54.240Z,3.63
2023-08-14T07:36:57.066Z,3.65
2023-08-14T07:41:59.953Z,3.40
2023-08-14T07:47:04.173Z,3.17
2023-08-14T07:52:07.744Z,3.38
2023-08-14T07:57:10.816Z,3.33
2023-08-14T08:02:15.055Z,3.53
2023-08-14T08:07:18.164Z,3.20
2023-08-14T08:12:21.491Z,3.97
2023-08-14T08:17:25.738Z,3.17
2023-08-14T08:22:28.669Z,3.20
2023-08-14T08:27:31.566Z,3.10
2023-08-14T08:32:35.792Z,3.30
2023-08-14T08:37:38.700Z,3.67
2023-08-14T08:42:42.214Z,3.35
2023-08-14T08:47:50.857Z,3.13
2023-08-14T08:52:54.777Z,2.75
2023-08-14T08:57:59.514Z,2.92
2023-08-14T09:03:03.904Z,3.25
2023-08-14T09:08:09.567Z,2.83
2023-08-14T09:18:22.108Z,3.05
2023-08-14T09:23:25.168Z,3.08
2023-08-14T09:28:29.053Z,2.92
2023-08-14T09:33:34.105Z,3.00
2023-08-14T09:38:37.105Z,2.70
2023-08-14T09:43:41.544Z,2.67
2023-08-14T09:48:47.448Z,2.78
2023-08-14T09:53:51.709Z,2.65
2023-08-14T09:58:56.251Z,3.05
2023-08-14T10:04:01.504Z,2.80
2023-08-14T10:09:05.976Z,2.92
2023-08-14T10:14:10.499Z,2.40
2023-08-14T10:19:19.153Z,3.15
2023-08-14T10:24:24.453Z,2.85
2023-08-14T10:29:27.561Z,2.70
2023-08-14T10:34:32.742Z,2.53
2023-08-14T10:39:37.626Z,2.03
2023-08-14T10:44:40.509Z,2.45
2023-08-14T10:49:47.993Z,2.25
2023-08-14T10:54:55.032Z,2.40
2023-08-14T10:59:59.377Z,2.47
2023-08-14T11:05:13.881Z,2.10
2023-08-14T11:10:17.305Z,2.53
2023-08-14T11:15:22.253Z,2.63
2023-08-14T11:20:29.184Z,2.20
2023-08-14T11:25:32.617Z,2.50
2023-08-14T11:30:37.176Z,2.85
2023-08-14T11:35:41.384Z,2.15
2023-08-14T11:40:44.688Z,2.10
2023-08-14T11:45:47.619Z,2.10
2023-08-14T11:50:52.328Z,2.58
2023-08-14T11:55:55.400Z,1.83
2023-08-14T12:00:58.583Z,2.08
2023-08-14T12:06:05.225Z,2.50
2023-08-14T12:11:08.365Z,2.70
2023-08-14T12:16:17.804Z,2.15
2023-08-14T12:21:28.526Z,2.30
2023-08-14T12:26:38.017Z,2.50
2023-08-14T12:31:40.941Z,2.75
2023-08-14T12:36:45.153Z,2.85
2023-08-14T12:41:47.998Z,2.40
2023-08-14T12:46:50.875Z,2.65
2023-08-14T12:51:55.100Z,2.28
2023-08-14T12:57:01.637Z,2.30
2023-08-14T13:02:04.955Z,2.78
2023-08-14T13:07:09.252Z,2.20
2023-08-14T13:12:12.116Z,2.30
2023-08-14T13:17:14.977Z,2.42
2023-08-14T13:22:19.442Z,3.03
2023-08-14T13:27:22.773Z,3.20
2023-08-14T13:32:25.999Z,2.65
2023-08-14T13:37:30.288Z,2.83
2023-08-14T13:42:33.056Z,2.72
2023-08-14T13:47:43.985Z,2.20
2023-08-14T13:52:56.693Z,2.90
2023-08-14T13:57:59.932Z,2.78
2023-08-14T14:08:10.357Z,2.80
2023-08-14T14:13:13.262Z,2.47
2023-08-14T14:18:16.501Z,3.33
2023-08-14T14:23:20.636Z,2.45
2023-08-14T14:28:23.502Z,2.70
2023-08-14T14:33:26.513Z,2.55
2023-08-14T14:38:30.939Z,2.83
2023-08-14T14:43:34.181Z,2.72
2023-08-14T14:48:37.049Z,2.78
2023-08-14T14:53:41.287Z,2.65
2023-08-14T14:58:44.069Z,2.80
2023-08-14T15:03:47.027Z,2.58
2023-08-14T15:08:51.209Z,2.97
2023-08-14T15:13:54.003Z,2.45
2023-08-14T15:18:56.932Z,3.22
2023-08-14T15:24:01.052Z,3.20
2023-08-14T15:29:03.959Z,2.58
2023-08-14T15:34:06.958Z,2.47
2023-08-14T15:39:11.089Z,3.25
2023-08-14T15:44:13.948Z,2.97
2023-08-14T15:49:16.814Z,2.53
2023-08-14T15:54:21.133Z,2.90
2023-08-14T15:59:24.074Z,3.00
2023-08-14T16:04:26.886Z,3.10
2023-08-14T16:09:31.132Z,2.72
2023-08-14T16:14:33.967Z,2.53
2023-08-14T16:19:37.033Z,2.90
2023-08-14T16:24:41.543Z,3.08
2023-08-14T16:29:44.771Z,3.40
2023-08-14T16:34:48.791Z,2.60
2023-08-14T16:39:53.203Z,2.75
2023-08-14T16:44:56.404Z,2.45
2023-08-14T16:49:59.279Z,2.38
2023-08-14T16:55:03.785Z,2.70
2023-08-14T17:00:08.142Z,2.40
2023-08-14T17:05:11.574Z,2.83
2023-08-14T17:10:16.094Z,2.90
2023-08-14T17:20:26.675Z,2.75
2023-08-14T17:25:30.894Z,2.70
2023-08-14T17:30:37.310Z,2.53
2023-08-14T17:35:40.087Z,2.92
2023-08-14T17:40:44.595Z,2.35
2023-08-14T17:45:49.611Z,2.60
2023-08-14T17:50:52.997Z,3.10
2023-08-14T17:55:57.200Z,2.83
2023-08-14T18:01:00.432Z,2.72
2023-08-14T18:06:04.509Z,2.75
2023-08-14T18:11:08.784Z,3.08
2023-08-14T18:16:11.621Z,2.78
2023-08-14T18:21:21.242Z,3.13
2023-08-14T18:26:31.630Z,3.80
2023-08-14T18:31:34.475Z,5.60
2023-08-14T18:36:37.411Z,5.43
2023-08-14T18:41:41.576Z,4.95
2023-08-14T18:46:44.768Z,4.38
2023-08-14T18:51:47.644Z,3.88
2023-08-14T18:56:52.068Z,3.80
2023-08-14T19:01:55.002Z,3.83
2023-08-14T19:06:57.779Z,4.20
2023-08-14T19:12:01.949Z,3.85
2023-08-14T19:17:05.276Z,4.22
2023-08-14T19:22:15.166Z,4.00
2023-08-14T19:27:19.798Z,4.65
2023-08-14T19:32:22.940Z,4.65
2023-08-14T19:37:25.833Z,4.85
2023-08-14T19:42:30.016Z,5.13
2023-08-14T19:47:32.878Z,4.75
2023-08-14T19:52:35.834Z,5.05
2023-08-14T19:57:40.139Z,3.97
2023-08-14T20:02:43.018Z,3.80
2023-08-14T20:07:45.827Z,3.10
2023-08-14T20:12:50.094Z,4.57
2023-08-14T20:17:52.900Z,4.50
2023-08-14T20:22:55.703Z,5.20
2023-08-14T20:27:59.836Z,4.43
2023-08-14T20:33:02.669Z,4.63
2023-08-14T20:38:05.995Z,4.28
2023-08-14T20:43:12.387Z,4.57
2023-08-14T20:48:15.235Z,3.80
2023-08-14T20:53:18.115Z,3.95
2023-08-14T20:58:22.285Z,4.70
2023-08-14T21:03:25.360Z,4.30
2023-08-14T21:08:28.241Z,4.97
2023-08-14T21:13:32.445Z,4.43
2023-08-14T21:18:35.236Z,4.18
2023-08-14T21:23:38.070Z,4.35
2023-08-14T21:28:43.750Z,4.10
2023-08-14T21:33:48.391Z,4.38
2023-08-14T21:38:51.185Z,4.68
2023-08-14T21:43:55.312Z,4.57
2023-08-14T21:48:58.168Z,4.60
2023-08-14T21:54:00.947Z,5.00
2023-08-14T21:59:05.232Z,4.30
2023-08-14T22:04:08.127Z,4.18
2023-08-14T22:09:10.973Z,4.40
2023-08-14T22:14:15.217Z,4.32
2023-08-14T22:19:17.971Z,4.50
2023-08-14T22:24:38.434Z,4.60
2023-08-14T22:29:44.311Z,4.75
2023-08-14T22:34:47.104Z,4.15
2023-08-14T22:39:49.870Z,4.05
2023-08-14T22:44:53.940Z,4.55
2023-08-14T22:49:56.838Z,4.38
2023-08-14T22:54:59.563Z,4.75
2023-08-14T23:00:03.780Z,4.30
2023-08-14T23:05:08.203Z,4.78
2023-08-14T23:10:11.359Z,4.53
2023-08-14T23:15:15.513Z,4.75
2023-08-14T23:20:18.420Z,5.07
2023-08-14T23:25:21.265Z,4.47
2023-08-14T23:30:25.410Z,4.40
2023-08-14T23:35:28.212Z,4.28
2023-08-14T23:40:31.274Z,3.72
2023-08-14T23:45:35.440Z,4.20
2023-08-14T23:50:38.482Z,4.15
2023-08-14T23:55:44.942Z,4.00
